createdAt,value
2023-02-22T00:01:02.213Z,81.18
2023-02-22T00:03:32.556Z,82.56
2023-02-22T00:06:05.433Z,84.11
2023-02-22T00:08:36.364Z,84.10
2023-02-22T00:11:10.118Z,82.38
2023-02-22T00:13:38.728Z,82.17
2023-02-22T00:16:07.234Z,82.85
2023-02-22T00:18:38.064Z,83.34
2023-02-22T00:21:10.780Z,84.01
2023-02-22T00:23:46.727Z,83.46
2023-02-22T00:26:18.582Z,82.70
2023-02-22T00:28:48.770Z,81.73
2023-02-22T00:31:17.357Z,81.87
2023-02-22T00:33:46.078Z,82.13
2023-02-22T00:36:15.709Z,82.08
2023-02-22T00:38:43.941Z,82.18
2023-02-22T00:41:12.415Z,80.61
2023-02-22T00:43:41.752Z,80.04
2023-02-22T00:46:10.547Z,79.68
2023-02-22T00:48:40.424Z,80.23
2023-02-22T00:51:09.232Z,80.81
2023-02-22T00:55:26.510Z,80.18
2023-02-22T00:57:55.830Z,79.77
2023-02-22T01:00:26.467Z,79.10
2023-02-22T01:02:56.994Z,79.44
2023-02-22T01:05:28.206Z,80.14
2023-02-22T01:07:57.640Z,80.46
2023-02-22T01:10:27.628Z,79.92
2023-02-22T01:12:56.145Z,78.40
2023-02-22T01:15:27.440Z,77.71
2023-02-22T01:17:56.212Z,77.98
2023-02-22T01:20:25.788Z,78.62
2023-02-22T01:22:55.706Z,79.75
2023-02-22T01:25:26.084Z,80.61
2023-02-22T01:27:55.041Z,81.16
2023-02-22T01:30:26.094Z,80.81
2023-02-22T01:32:54.635Z,78.65
2023-02-22T01:35:25.498Z,77.73
2023-02-22T01:37:53.844Z,78.00
2023-02-22T01:40:30.578Z,78.82
2023-02-22T01:43:01.098Z,79.14
2023-02-22T01:45:30.287Z,79.94
2023-02-22T01:48:01.177Z,80.24
2023-02-22T01:50:30.200Z,79.47
2023-02-22T01:52:59.372Z,77.33
2023-02-22T01:55:28.255Z,76.86
2023-02-22T01:57:58.614Z,77.07
2023-02-22T02:00:28.290Z,77.25
2023-02-22T02:03:00.475Z,78.45
2023-02-22T02:05:31.574Z,78.76
2023-02-22T02:08:09.015Z,79.18
2023-02-22T02:10:39.121Z,77.71
2023-02-22T02:13:07.587Z,77.24
2023-02-22T02:15:37.239Z,77.30
2023-02-22T02:18:10.499Z,78.33
2023-02-22T02:21:12.047Z,78.08
2023-02-22T02:24:02.577Z,80.02
2023-02-22T02:26:58.773Z,80.19
2023-02-22T02:30:07.172Z,78.35
2023-02-22T02:32:59.134Z,77.52
2023-02-22T02:35:37.028Z,77.99
2023-02-22T02:38:14.737Z,78.95
2023-02-22T02:40:55.713Z,80.15
2023-02-22T02:43:43.121Z,80.82
2023-02-22T02:46:21.443Z,79.22
2023-02-22T02:48:54.889Z,77.55
2023-02-22T02:51:25.907Z,77.39
2023-02-22T02:53:55.195Z,78.03
2023-02-22T02:56:25.080Z,78.68
2023-02-22T02:58:54.209Z,80.01
2023-02-22T03:02:02.603Z,80.31
2023-02-22T03:04:35.887Z,78.63
2023-02-22T03:07:45.117Z,77.39
2023-02-22T03:10:39.103Z,77.30
2023-02-22T03:13:14.663Z,78.36
2023-02-22T03:16:03.017Z,78.81
2023-02-22T03:18:56.466Z,79.83
2023-02-22T03:21:45.166Z,78.56
2023-02-22T03:24:19.231Z,76.96
2023-02-22T03:26:50.163Z,76.92
2023-02-22T03:29:18.458Z,78.19
2023-02-22T03:32:01.605Z,79.18
2023-02-22T03:34:41.113Z,80.05
2023-02-22T03:37:18.746Z,80.81
2023-02-22T03:39:47.692Z,80.17
2023-02-22T03:42:20.220Z,78.58
2023-02-22T03:44:49.078Z,78.64
2023-02-22T03:47:28.478Z,79.57
2023-02-22T03:50:07.119Z,80.21
2023-02-22T03:52:38.605Z,81.60
2023-02-22T03:55:11.453Z,82.09
2023-02-22T03:57:41.938Z,81.09
2023-02-22T04:00:11.825Z,79.85
2023-02-22T04:02:45.321Z,79.22
2023-02-22T04:05:17.456Z,79.88
2023-02-22T04:07:45.853Z,80.92
2023-02-22T04:10:15.747Z,81.62
2023-02-22T04:12:45.229Z,81.47
2023-02-22T04:15:20.830Z,80.15
2023-02-22T04:17:52.573Z,79.26
2023-02-22T04:20:25.816Z,79.51
2023-02-22T04:23:00.577Z,80.39
2023-02-22T04:25:30.323Z,80.70
2023-02-22T04:27:59.078Z,81.20
2023-02-22T04:30:40.224Z,79.85
2023-02-22T04:33:13.035Z,78.87
2023-02-22T04:35:41.315Z,79.08
2023-02-22T04:38:10.920Z,78.93
2023-02-22T04:40:41.360Z,79.50
2023-02-22T04:43:12.279Z,80.01
2023-02-22T04:45:42.102Z,79.77
2023-02-22T04:48:11.103Z,77.87
2023-02-22T04:50:40.771Z,76.86
2023-02-22T04:53:09.379Z,76.12
2023-02-22T04:55:39.499Z,76.77
2023-02-22T04:58:09.484Z,77.57
2023-02-22T05:00:39.431Z,78.61
2023-02-22T05:03:09.238Z,79.29
2023-02-22T05:05:38.780Z,78.75
2023-02-22T05:08:08.145Z,76.74
2023-02-22T05:10:38.574Z,76.80
2023-02-22T05:13:07.084Z,76.69
2023-02-22T05:15:35.358Z,77.01
2023-02-22T05:18:05.157Z,78.24
2023-02-22T05:20:35.089Z,78.78
2023-02-22T05:23:03.581Z,78.53
2023-02-22T05:25:34.885Z,76.60
2023-02-22T05:28:07.870Z,76.55
2023-02-22T05:30:36.958Z,75.98
2023-02-22T05:33:05.340Z,76.81
2023-02-22T05:35:34.686Z,77.04
2023-02-22T05:38:04.056Z,78.37
2023-02-22T05:40:33.247Z,78.86
2023-02-22T05:43:03.016Z,78.87
2023-02-22T05:45:33.378Z,77.20
2023-02-22T05:48:02.070Z,76.75
2023-02-22T05:50:37.916Z,77.59
2023-02-22T05:53:06.310Z,77.24
2023-02-22T05:55:34.677Z,77.74
2023-02-22T05:58:06.094Z,78.63
2023-02-22T06:00:35.038Z,78.90
2023-02-22T06:03:06.463Z,79.34
2023-02-22T06:05:35.696Z,78.04
2023-02-22T06:08:05.779Z,76.80
2023-02-22T06:10:34.154Z,76.97
2023-02-22T06:13:07.350Z,77.75
2023-02-22T06:15:36.042Z,78.33
2023-02-22T06:18:04.513Z,78.33
2023-02-22T06:20:35.873Z,79.03
2023-02-22T06:23:04.091Z,76.89
2023-02-22T06:25:36.719Z,75.34
2023-02-22T06:28:05.397Z,75.80
2023-02-22T06:30:33.931Z,76.08
2023-02-22T06:33:02.682Z,76.17
2023-02-22T06:35:31.096Z,77.15
2023-02-22T06:37:59.955Z,77.65
2023-02-22T06:40:29.797Z,78.01
2023-02-22T06:43:00.681Z,78.66
2023-02-22T06:45:29.496Z,76.72
2023-02-22T06:47:59.395Z,74.90
2023-02-22T06:50:29.708Z,74.57
2023-02-22T06:52:58.623Z,74.73
2023-02-22T06:55:28.913Z,75.78
2023-02-22T06:57:57.146Z,76.06
2023-02-22T07:00:27.230Z,76.55
2023-02-22T07:02:55.904Z,77.12
2023-02-22T07:05:24.551Z,77.95
2023-02-22T07:08:03.559Z,75.70
2023-02-22T07:10:33.639Z,74.28
2023-02-22T07:13:09.489Z,74.28
2023-02-22T07:15:39.220Z,74.24
2023-02-22T07:18:09.733Z,75.72
2023-02-22T07:20:39.337Z,75.95
2023-02-22T07:23:08.121Z,76.97
2023-02-22T07:25:36.624Z,77.79
2023-02-22T07:28:05.394Z,77.30
2023-02-22T07:30:34.430Z,75.25
2023-02-22T07:33:08.587Z,75.28
2023-02-22T07:35:50.323Z,74.91
2023-02-22T07:38:21.954Z,76.39
2023-02-22T07:40:50.630Z,77.96
2023-02-22T07:43:20.869Z,77.87
2023-02-22T07:45:50.289Z,77.48
2023-02-22T07:48:20.544Z,77.53
2023-02-22T07:50:49.167Z,76.19
2023-02-22T07:53:23.700Z,76.70
2023-02-22T07:55:52.277Z,77.00
2023-02-22T07:58:25.573Z,78.19
2023-02-22T08:00:56.334Z,79.24
2023-02-22T08:03:25.848Z,80.10
2023-02-22T08:05:58.036Z,79.47
2023-02-22T08:08:27.162Z,78.39
2023-02-22T08:10:56.153Z,78.63
2023-02-22T08:13:24.648Z,77.85
2023-02-22T08:15:55.088Z,78.13
2023-02-22T08:18:24.566Z,78.40
2023-02-22T08:20:54.106Z,77.92
2023-02-22T08:23:25.467Z,77.97
2023-02-22T08:25:54.513Z,77.74
2023-02-22T08:28:24.023Z,76.75
2023-02-22T08:30:55.474Z,77.15
2023-02-22T08:33:25.892Z,76.77
2023-02-22T08:35:54.888Z,77.25
2023-02-22T08:38:27.586Z,77.77
2023-02-22T08:40:55.874Z,78.00
2023-02-22T08:43:24.324Z,77.33
2023-02-22T08:45:55.523Z,76.52
2023-02-22T08:48:25.703Z,75.53
2023-02-22T08:50:55.188Z,75.69
2023-02-22T08:53:23.522Z,76.67
2023-02-22T08:55:52.775Z,76.85
2023-02-22T08:58:22.628Z,77.04
2023-02-22T09:00:50.993Z,77.90
2023-02-22T09:03:20.372Z,76.59
2023-02-22T09:05:49.490Z,75.07
2023-02-22T09:08:18.033Z,74.49
2023-02-22T09:10:46.922Z,74.20
2023-02-22T09:13:23.200Z,74.41
2023-02-22T09:15:53.303Z,76.06
2023-02-22T09:18:21.709Z,75.52
2023-02-22T09:20:52.529Z,76.15
2023-02-22T09:23:24.280Z,75.92
2023-02-22T09:25:56.317Z,74.64
2023-02-22T09:28:28.946Z,72.67
2023-02-22T09:30:57.706Z,72.22
2023-02-22T09:33:26.349Z,72.56
2023-02-22T09:35:55.101Z,73.29
2023-02-22T09:38:24.990Z,73.54
2023-02-22T09:41:15.064Z,75.41
2023-02-22T09:44:01.492Z,74.62
2023-02-22T09:46:36.689Z,75.13
2023-02-22T09:49:15.556Z,74.16
2023-02-22T09:51:49.598Z,72.35
2023-02-22T09:54:34.525Z,71.96
2023-02-22T09:57:05.720Z,72.02
2023-02-22T09:59:40.856Z,73.12
2023-02-22T10:02:17.736Z,74.14
2023-02-22T10:05:23.117Z,75.47
2023-02-22T10:08:08.502Z,75.95
2023-02-22T10:10:39.572Z,76.24
2023-02-22T10:13:14.673Z,75.22
2023-02-22T10:16:03.040Z,74.18
2023-02-22T10:19:01.003Z,74.98
2023-02-22T10:21:33.979Z,74.62
2023-02-22T10:24:19.257Z,74.84
2023-02-22T10:26:47.653Z,75.02
2023-02-22T10:29:22.346Z,76.22
2023-02-22T10:31:55.103Z,76.92
2023-02-22T10:34:25.691Z,76.46
2023-02-22T10:37:13.486Z,75.45
2023-02-22T10:39:42.148Z,74.76
2023-02-22T10:42:12.515Z,74.38
2023-02-22T10:44:42.229Z,74.71
2023-02-22T10:47:20.044Z,76.11
2023-02-22T10:49:57.648Z,74.64
2023-02-22T10:52:33.979Z,75.71
2023-02-22T10:55:14.636Z,76.02
2023-02-22T10:57:48.109Z,76.28
2023-02-22T11:00:21.240Z,75.45
2023-02-22T11:02:54.784Z,74.73
2023-02-22T11:05:39.403Z,75.36
2023-02-22T11:08:41.890Z,74.35
2023-02-22T11:11:29.365Z,74.82
2023-02-22T11:13:58.398Z,75.59
2023-02-22T11:16:43.705Z,75.81
2023-02-22T11:19:26.079Z,77.05
2023-02-22T11:22:00.296Z,74.36
2023-02-22T11:24:43.574Z,73.48
2023-02-22T11:27:28.568Z,72.67
2023-02-22T11:30:06.800Z,74.83
2023-02-22T11:32:36.733Z,74.21
2023-02-22T11:35:20.535Z,74.34
2023-02-22T11:37:49.573Z,72.99
2023-02-22T11:40:25.629Z,73.06
2023-02-22T11:43:18.897Z,73.06
2023-02-22T11:46:02.208Z,73.60
2023-02-22T11:48:37.037Z,72.85
2023-02-22T11:51:21.075Z,71.55
2023-02-22T11:54:12.485Z,71.69
2023-02-22T11:56:44.681Z,71.61
2023-02-22T11:59:44.669Z,71.69
2023-02-22T12:02:25.240Z,72.51
2023-02-22T12:05:09.337Z,72.92
2023-02-22T12:07:48.834Z,73.29
2023-02-22T12:10:23.134Z,73.00
2023-02-22T12:13:02.069Z,71.32
2023-02-22T12:16:00.245Z,69.25
2023-02-22T12:18:56.883Z,68.37
2023-02-22T12:21:25.358Z,68.31
2023-02-22T12:24:16.669Z,69.95
2023-02-22T12:26:57.058Z,69.33
2023-02-22T12:29:47.452Z,71.27
2023-02-22T12:32:43.489Z,71.75
2023-02-22T12:35:41.025Z,72.03
2023-02-22T12:38:23.407Z,71.64
2023-02-22T12:41:04.313Z,71.32
2023-02-22T12:43:41.871Z,71.20
2023-02-22T12:47:00.295Z,70.16
2023-02-22T12:49:32.337Z,68.63
2023-02-22T12:52:20.392Z,68.03
2023-02-22T12:55:28.280Z,68.63
2023-02-22T12:58:04.684Z,69.22
2023-02-22T13:00:50.128Z,69.34
2023-02-22T13:03:38.987Z,70.13
2023-02-22T13:06:26.395Z,69.81
2023-02-22T13:09:05.923Z,70.98
2023-02-22T13:11:47.713Z,72.37
2023-02-22T13:14:52.449Z,73.27
2023-02-22T13:17:23.947Z,71.89
2023-02-22T13:19:56.166Z,69.66
2023-02-22T13:22:48.466Z,69.07
2023-02-22T13:25:25.719Z,69.80
2023-02-22T13:28:07.100Z,70.76
2023-02-22T13:30:45.931Z,71.25
2023-02-22T13:33:40.386Z,70.90
2023-02-22T13:36:27.703Z,71.90
2023-02-22T13:39:11.768Z,71.47
2023-02-22T13:41:56.521Z,72.66
2023-02-22T13:44:28.069Z,72.41
2023-02-22T13:47:20.947Z,72.28
2023-02-22T13:50:10.699Z,71.45
2023-02-22T13:52:40.207Z,68.85
2023-02-22T13:55:20.869Z,68.58
2023-02-22T13:57:50.170Z,69.47
2023-02-22T14:00:21.453Z,68.85
2023-02-22T14:02:56.078Z,70.13
2023-02-22T14:05:39.858Z,70.52
2023-02-22T14:08:33.958Z,70.62
2023-02-22T14:11:06.132Z,71.18
2023-02-22T14:14:07.068Z,71.63
2023-02-22T14:16:37.846Z,72.70
2023-02-22T14:19:10.073Z,73.18
2023-02-22T14:21:38.490Z,71.23
2023-02-22T14:24:10.221Z,69.87
2023-02-22T14:26:39.720Z,69.84
2023-02-22T14:29:16.363Z,70.13
2023-02-22T14:31:47.687Z,71.29
2023-02-22T14:34:40.691Z,71.53
2023-02-22T14:37:15.416Z,72.13
2023-02-22T14:39:52.393Z,72.19
2023-02-22T14:42:27.535Z,72.81
2023-02-22T14:45:06.094Z,72.87
2023-02-22T14:47:44.073Z,73.01
2023-02-22T14:50:23.402Z,71.17
2023-02-22T14:53:01.512Z,70.46
2023-02-22T14:55:31.716Z,70.47
2023-02-22T14:58:21.296Z,71.10
2023-02-22T15:00:52.875Z,71.96
2023-02-22T15:03:24.698Z,72.41
2023-02-22T15:05:53.814Z,73.24
2023-02-22T15:08:28.563Z,74.30
2023-02-22T15:10:57.317Z,75.09
2023-02-22T15:13:28.349Z,73.94
2023-02-22T15:16:02.106Z,72.37
2023-02-22T15:18:41.845Z,72.19
2023-02-22T15:21:13.406Z,73.15
2023-02-22T15:23:45.487Z,73.60
2023-02-22T15:26:37.554Z,73.76
2023-02-22T15:29:17.191Z,74.20
2023-02-22T15:31:48.199Z,74.52
2023-02-22T15:34:34.229Z,74.18
2023-02-22T15:37:19.502Z,72.96
2023-02-22T15:39:47.739Z,71.89
2023-02-22T15:42:21.157Z,71.94
2023-02-22T15:44:54.996Z,72.00
2023-02-22T15:47:27.753Z,73.10
2023-02-22T15:50:15.621Z,73.21
2023-02-22T15:53:06.893Z,73.89
2023-02-22T15:55:42.647Z,75.03
2023-02-22T15:58:13.354Z,74.03
2023-02-22T16:00:43.717Z,72.75
2023-02-22T16:03:13.680Z,72.21
2023-02-22T16:05:47.574Z,72.95
2023-02-22T16:08:27.018Z,73.30
2023-02-22T16:11:03.295Z,72.74
2023-02-22T16:13:34.488Z,73.20
2023-02-22T16:16:25.523Z,73.25
2023-02-22T16:18:53.879Z,73.53
2023-02-22T16:21:22.589Z,72.59
2023-02-22T16:23:55.940Z,70.73
2023-02-22T16:26:35.557Z,70.00
2023-02-22T16:29:06.135Z,71.06
2023-02-22T16:31:40.373Z,71.33
2023-02-22T16:34:14.764Z,71.38
2023-02-22T16:36:45.579Z,72.27
2023-02-22T16:39:26.287Z,73.12
2023-02-22T16:42:02.273Z,73.45
2023-02-22T16:44:30.711Z,73.11
2023-02-22T16:47:00.112Z,73.12
2023-02-22T16:49:28.687Z,71.88
2023-02-22T16:51:59.773Z,70.11
2023-02-22T16:54:34.508Z,70.71
2023-02-22T16:57:06.334Z,71.18
2023-02-22T16:59:39.221Z,70.96
2023-02-22T17:02:07.994Z,71.72
2023-02-22T17:04:37.718Z,72.75
2023-02-22T17:07:09.358Z,72.30
2023-02-22T17:09:39.690Z,73.34
2023-02-22T17:12:08.386Z,73.75
2023-02-22T17:14:36.943Z,74.08
2023-02-22T17:17:06.030Z,73.16
2023-02-22T17:19:36.747Z,70.68
2023-02-22T17:22:17.744Z,69.79
2023-02-22T17:24:48.881Z,70.39
2023-02-22T17:27:17.356Z,71.36
2023-02-22T17:29:48.192Z,72.40
2023-02-22T17:32:16.847Z,72.70
2023-02-22T17:34:47.387Z,72.86
2023-02-22T17:37:16.446Z,73.34
2023-02-22T17:39:45.415Z,73.80
2023-02-22T17:42:15.720Z,74.35
2023-02-22T17:44:44.446Z,73.52
2023-02-22T17:47:12.887Z,71.88
2023-02-22T17:49:41.470Z,71.40
2023-02-22T17:52:10.059Z,71.98
2023-02-22T17:54:39.357Z,72.23
2023-02-22T17:57:07.736Z,73.21
2023-02-22T17:59:36.655Z,73.62
2023-02-22T18:02:05.584Z,74.14
2023-02-22T18:04:36.047Z,74.09
2023-02-22T18:07:04.636Z,74.31
2023-02-22T18:09:36.881Z,73.26
2023-02-22T18:12:06.093Z,71.21
2023-02-22T18:14:34.408Z,71.40
2023-02-22T18:17:05.199Z,71.29
2023-02-22T18:19:34.396Z,71.34
2023-02-22T18:22:04.773Z,72.19
2023-02-22T18:24:34.745Z,72.43
2023-02-22T18:27:06.198Z,72.93
2023-02-22T18:29:34.795Z,73.92
2023-02-22T18:32:04.341Z,74.29
2023-02-22T18:34:34.092Z,74.33
2023-02-22T18:37:02.356Z,72.59
2023-02-22T18:39:36.034Z,71.65
2023-02-22T18:42:04.136Z,72.54
2023-02-22T18:44:35.343Z,73.18
2023-02-22T18:47:03.688Z,73.52
2023-02-22T18:49:32.342Z,73.50
2023-02-22T18:52:01.464Z,74.46
2023-02-22T18:54:30.328Z,74.76
2023-02-22T18:57:02.158Z,74.16
2023-02-22T18:59:30.494Z,72.91
2023-02-22T19:02:03.071Z,73.52
2023-02-22T19:04:32.442Z,74.47
2023-02-22T19:07:00.753Z,75.71
2023-02-22T19:09:30.536Z,76.78
2023-02-22T19:11:58.796Z,76.67
2023-02-22T19:14:29.371Z,76.82
2023-02-22T19:17:01.821Z,75.15
2023-02-22T19:19:31.726Z,74.33
2023-02-22T19:22:00.213Z,74.14
2023-02-22T19:24:28.999Z,74.91
2023-02-22T19:27:00.242Z,74.94
2023-02-22T19:29:32.312Z,75.49
2023-02-22T19:32:01.332Z,76.07
2023-02-22T19:34:31.615Z,76.24
2023-02-22T19:37:01.020Z,74.92
2023-02-22T19:39:29.824Z,73.62
2023-02-22T19:42:00.649Z,72.96
2023-02-22T19:44:29.535Z,73.49
2023-02-22T19:47:00.082Z,74.45
2023-02-22T19:49:29.468Z,75.65
2023-02-22T19:51:58.326Z,76.14
2023-02-22T19:54:26.641Z,76.67
2023-02-22T19:56:57.262Z,76.03
2023-02-22T19:59:25.573Z,74.19
2023-02-22T20:01:55.894Z,73.43
2023-02-22T20:04:30.688Z,73.18
2023-02-22T20:07:00.303Z,74.07
2023-02-22T20:09:43.423Z,74.20
2023-02-22T20:12:11.724Z,75.32
2023-02-22T20:14:40.384Z,75.87
2023-02-22T20:17:10.602Z,75.01
2023-02-22T20:19:40.966Z,74.36
2023-02-22T20:22:10.232Z,72.68
2023-02-22T20:24:38.915Z,72.15
2023-02-22T20:27:09.348Z,72.56
2023-02-22T20:29:38.339Z,73.10
2023-02-22T20:32:08.645Z,74.07
2023-02-22T20:34:37.268Z,74.84
2023-02-22T20:37:06.438Z,75.53
2023-02-22T20:39:35.333Z,76.07
2023-02-22T20:42:05.251Z,75.17
2023-02-22T20:44:34.950Z,74.82
2023-02-22T20:47:04.051Z,74.79
2023-02-22T20:49:32.877Z,75.64
2023-02-22T20:52:02.848Z,76.20
2023-02-22T20:54:34.610Z,76.13
2023-02-22T20:57:02.999Z,76.45
2023-02-22T20:59:31.782Z,76.18
2023-02-22T21:02:00.665Z,75.02
2023-02-22T21:04:33.119Z,74.58
2023-02-22T21:07:02.550Z,74.97
2023-02-22T21:09:34.716Z,75.97
2023-02-22T21:12:03.520Z,76.19
2023-02-22T21:14:32.802Z,76.24
2023-02-22T21:17:04.865Z,77.37
2023-02-22T21:19:34.884Z,76.59
2023-02-22T21:22:08.445Z,75.40
2023-02-22T21:24:38.140Z,74.86
2023-02-22T21:27:07.231Z,73.38
2023-02-22T21:29:36.115Z,74.42
2023-02-22T21:32:05.468Z,75.55
2023-02-22T21:34:35.837Z,75.64
2023-02-22T21:37:08.257Z,74.98
2023-02-22T21:39:40.138Z,74.93
2023-02-22T21:42:09.128Z,72.43
2023-02-22T21:44:37.447Z,68.38
2023-02-22T21:47:08.039Z,66.75
2023-02-22T21:49:38.360Z,64.60
2023-02-22T21:52:08.087Z,64.19
2023-02-22T21:54:36.857Z,64.15
2023-02-22T21:57:06.671Z,64.33
2023-02-22T21:59:35.168Z,65.04
2023-02-22T22:02:04.053Z,65.22
2023-02-22T22:04:32.796Z,66.07
2023-02-22T22:07:04.593Z,66.88
2023-02-22T22:09:33.564Z,67.49
2023-02-22T22:12:11.381Z,67.60
2023-02-22T22:14:42.047Z,68.18
2023-02-22T22:17:12.854Z,67.59
2023-02-22T22:19:44.708Z,68.58
2023-02-22T22:22:13.174Z,68.55
2023-02-22T22:24:45.900Z,68.12
2023-02-22T22:27:15.270Z,68.36
2023-02-22T22:29:43.848Z,68.23
2023-02-22T22:32:13.927Z,68.02
2023-02-22T22:34:43.981Z,68.86
2023-02-22T22:37:13.482Z,67.91
2023-02-22T22:39:42.749Z,65.68
2023-02-22T22:42:11.408Z,66.01
2023-02-22T22:44:42.713Z,66.14
2023-02-22T22:47:14.260Z,66.54
2023-02-22T22:57:23.512Z,68.34
2023-02-22T22:59:52.026Z,69.19
2023-02-22T23:02:20.715Z,69.68
2023-02-22T23:04:52.476Z,70.08
2023-02-22T23:07:20.638Z,70.28
2023-02-22T23:09:49.089Z,70.58
2023-02-22T23:12:19.755Z,71.08
2023-02-22T23:14:52.172Z,68.52
2023-02-22T23:17:41.298Z,67.39
2023-02-22T23:20:13.779Z,67.37
2023-02-22T23:22:47.679Z,68.32
2023-02-22T23:25:20.533Z,68.67
2023-02-22T23:27:49.662Z,69.43
2023-02-22T23:30:22.434Z,70.23
2023-02-22T23:32:51.405Z,71.20
2023-02-22T23:35:20.123Z,72.12
2023-02-22T23:37:58.217Z,72.83
2023-02-22T23:40:26.696Z,73.19
2023-02-22T23:42:55.115Z,71.76
2023-02-22T23:45:23.865Z,70.14
2023-02-22T23:47:55.060Z,70.24
2023-02-22T23:50:29.112Z,69.79
2023-02-22T23:53:03.628Z,69.55
2023-02-22T23:55:33.049Z,69.45
2023-02-22T23:58:01.325Z,69.26
